createdAt,value
2019-03-13T00:02:26.834Z,3.57
2019-03-13T00:04:56.194Z,1.90
2019-03-13T00:07:25.954Z,0.97
2019-03-13T00:09:55.239Z,1.10
2019-03-13T00:12:24.495Z,1.30
2019-03-13T00:14:53.826Z,0.80
2019-03-13T00:17:23.537Z,0.60
2019-03-13T00:19:52.821Z,0.60
2019-03-13T00:22:22.136Z,0.90
2019-03-13T00:24:51.813Z,0.90
2019-03-13T00:27:21.122Z,0.70
2019-03-13T00:29:50.629Z,1.00
2019-03-13T00:32:19.913Z,0.90
2019-03-13T00:34:49.027Z,0.80
2019-03-13T00:37:18.588Z,0.97
2019-03-13T00:39:47.968Z,0.90
2019-03-13T00:42:17.149Z,1.20
2019-03-13T00:44:46.743Z,0.93
2019-03-13T00:47:16.220Z,0.90
2019-03-13T00:49:45.527Z,1.00
2019-03-13T00:52:14.563Z,1.10
2019-03-13T00:54:43.971Z,1.07
2019-03-13T00:57:13.147Z,1.13
2019-03-13T00:59:42.470Z,0.80
2019-03-13T01:02:23.953Z,0.67
2019-03-13T01:05:02.268Z,0.87
2019-03-13T01:07:31.323Z,0.63
2019-03-13T01:10:00.467Z,0.80
2019-03-13T01:12:29.784Z,0.90
2019-03-13T01:14:58.872Z,1.00
2019-03-13T01:17:28.358Z,0.90
2019-03-13T01:19:57.800Z,1.10
2019-03-13T01:22:26.877Z,1.20
2019-03-13T01:24:56.150Z,2.07
2019-03-13T01:27:25.841Z,1.67
2019-03-13T01:29:55.233Z,1.87
2019-03-13T01:32:44.733Z,1.50
2019-03-13T01:35:33.314Z,2.53
2019-03-13T01:38:03.135Z,2.20
2019-03-13T01:40:32.145Z,2.93
2019-03-13T01:43:01.202Z,3.13
2019-03-13T01:45:30.291Z,2.60
2019-03-13T01:47:59.936Z,3.73
2019-03-13T01:50:28.866Z,3.17
2019-03-13T01:52:58.440Z,3.70
2019-03-13T01:55:27.645Z,3.60
2019-03-13T01:57:57.204Z,3.07
2019-03-13T02:00:26.907Z,3.30
2019-03-13T02:02:55.830Z,2.97
2019-03-13T02:05:25.225Z,2.70
2019-03-13T02:07:54.852Z,3.10
2019-03-13T02:10:24.259Z,3.00
2019-03-13T02:12:53.750Z,3.30
2019-03-13T02:15:22.964Z,2.60
2019-03-13T02:17:52.337Z,2.63
2019-03-13T02:20:21.868Z,2.70
2019-03-13T02:22:51.271Z,3.07
2019-03-13T02:25:20.414Z,3.20
2019-03-13T02:27:50.121Z,3.30
2019-03-13T02:30:20.603Z,2.60
2019-03-13T02:32:49.761Z,2.87
2019-03-13T02:35:18.917Z,3.63
2019-03-13T02:37:47.996Z,2.73
2019-03-13T02:40:17.858Z,2.63
2019-03-13T02:42:47.392Z,2.57
2019-03-13T02:45:16.625Z,2.60
2019-03-13T02:47:46.416Z,3.30
2019-03-13T02:50:15.524Z,2.70
2019-03-13T02:52:46.608Z,2.40
2019-03-13T02:55:15.967Z,2.50
2019-03-13T02:57:45.101Z,2.80
2019-03-13T03:00:17.610Z,2.53
2019-03-13T03:02:53.327Z,2.60
2019-03-13T03:05:22.896Z,2.30
2019-03-13T03:07:52.133Z,2.57
2019-03-13T03:10:22.862Z,2.93
2019-03-13T03:12:52.460Z,2.43
2019-03-13T03:15:22.014Z,2.67
2019-03-13T03:17:50.929Z,2.63
2019-03-13T03:20:20.380Z,2.73
2019-03-13T03:22:49.670Z,2.70
2019-03-13T03:25:19.178Z,2.50
2019-03-13T03:27:48.939Z,2.53
2019-03-13T03:30:20.651Z,3.07
2019-03-13T03:32:50.070Z,2.50
2019-03-13T03:35:19.158Z,2.70
2019-03-13T03:37:52.834Z,2.67
2019-03-13T03:40:31.072Z,3.30
2019-03-13T03:43:00.902Z,3.17
2019-03-13T03:45:30.289Z,3.20
2019-03-13T03:47:59.364Z,3.37
2019-03-13T03:50:28.399Z,3.20
2019-03-13T03:52:58.113Z,3.37
2019-03-13T03:55:27.497Z,3.50
2019-03-13T03:57:57.112Z,3.20
2019-03-13T04:00:26.374Z,3.47
2019-03-13T04:02:55.546Z,3.80
2019-03-13T04:05:25.010Z,3.70
2019-03-13T04:07:53.988Z,4.00
2019-03-13T04:10:23.137Z,4.40
2019-03-13T04:12:52.452Z,4.10
2019-03-13T04:15:21.470Z,3.77
2019-03-13T04:17:50.629Z,4.60
2019-03-13T04:20:19.728Z,5.00
2019-03-13T04:22:48.825Z,4.10
2019-03-13T04:25:37.349Z,4.77
2019-03-13T04:28:07.186Z,4.83
2019-03-13T04:30:36.315Z,4.43
2019-03-13T04:33:05.940Z,5.20
2019-03-13T04:35:35.009Z,4.97
2019-03-13T04:38:04.097Z,4.97
2019-03-13T04:40:33.079Z,5.00
2019-03-13T04:43:02.620Z,5.90
2019-03-13T04:45:32.467Z,5.63
2019-03-13T04:48:01.797Z,5.03
2019-03-13T04:50:31.199Z,6.17
2019-03-13T04:53:00.701Z,5.50
2019-03-13T04:55:30.009Z,5.30
2019-03-13T04:57:59.357Z,5.80
2019-03-13T05:00:28.380Z,5.80
2019-03-13T05:02:57.997Z,6.93
2019-03-13T05:05:56.888Z,5.13
2019-03-13T05:09:16.418Z,5.50
2019-03-13T05:11:45.915Z,5.73
2019-03-13T05:14:14.950Z,6.03
2019-03-13T05:16:44.169Z,5.33
2019-03-13T05:19:13.919Z,5.23
2019-03-13T05:21:43.821Z,5.40
2019-03-13T05:24:13.246Z,5.60
2019-03-13T05:26:42.631Z,4.90
2019-03-13T05:29:11.892Z,5.63
2019-03-13T05:31:41.186Z,6.27
2019-03-13T05:34:10.258Z,5.27
2019-03-13T05:36:39.443Z,5.80
2019-03-13T05:39:09.053Z,5.30
2019-03-13T05:41:38.240Z,5.17
2019-03-13T05:47:12.966Z,6.50
2019-03-13T05:49:42.228Z,5.03
2019-03-13T05:52:11.527Z,5.60
2019-03-13T05:54:40.661Z,5.97
2019-03-13T05:57:10.357Z,5.87
2019-03-13T05:59:39.549Z,5.80
2019-03-13T06:02:08.930Z,5.90
2019-03-13T06:04:38.022Z,6.50
2019-03-13T06:07:08.508Z,6.83
2019-03-13T06:09:40.038Z,6.20
2019-03-13T06:12:10.586Z,6.93
2019-03-13T06:14:39.560Z,7.20
2019-03-13T06:17:08.911Z,7.40
2019-03-13T06:19:38.375Z,6.57
2019-03-13T06:22:08.971Z,6.60
2019-03-13T06:24:38.308Z,7.43
2019-03-13T06:27:07.589Z,7.30
2019-03-13T06:29:37.209Z,7.80
2019-03-13T06:32:06.227Z,7.83
2019-03-13T06:34:35.791Z,7.23
2019-03-13T06:37:05.110Z,7.40
2019-03-13T06:39:34.300Z,8.03
2019-03-13T06:42:03.830Z,7.97
2019-03-13T06:44:33.505Z,8.30
2019-03-13T06:47:02.418Z,7.67
2019-03-13T06:49:31.711Z,7.80
2019-03-13T06:52:01.979Z,8.30
2019-03-13T06:54:31.447Z,7.53
2019-03-13T06:57:00.560Z,7.27
2019-03-13T06:59:39.400Z,7.90
2019-03-13T07:02:16.461Z,6.77
2019-03-13T07:05:03.358Z,8.17
2019-03-13T07:07:42.728Z,7.90
2019-03-13T07:10:34.361Z,6.73
2019-03-13T07:13:16.704Z,7.33
2019-03-13T07:15:54.514Z,7.23
2019-03-13T07:18:35.203Z,6.87
2019-03-13T07:21:23.805Z,6.67
2019-03-13T07:24:10.732Z,6.67
2019-03-13T07:26:57.908Z,5.93
2019-03-13T07:29:50.863Z,5.57
2019-03-13T07:32:38.898Z,6.33
2019-03-13T07:35:37.105Z,6.20
2019-03-13T07:38:37.537Z,5.77
2019-03-13T07:41:25.926Z,5.43
2019-03-13T07:44:14.634Z,6.23
2019-03-13T07:46:59.159Z,6.00
2019-03-13T07:49:47.371Z,5.70
2019-03-13T07:52:45.364Z,6.23
2019-03-13T07:55:52.166Z,5.53
2019-03-13T07:58:34.622Z,5.17
2019-03-13T08:01:22.645Z,5.83
2019-03-13T08:04:00.193Z,5.33
2019-03-13T08:06:51.430Z,4.97
2019-03-13T08:09:45.451Z,4.67
2019-03-13T08:12:33.765Z,4.87
2019-03-13T08:15:22.214Z,5.30
2019-03-13T08:18:11.768Z,4.10
2019-03-13T08:20:59.969Z,5.03
2019-03-13T08:24:05.963Z,4.27
2019-03-13T08:27:00.174Z,4.53
2019-03-13T08:29:43.708Z,4.50
2019-03-13T08:32:24.753Z,3.97
2019-03-13T08:35:00.860Z,3.87
2019-03-13T08:37:41.935Z,4.70
2019-03-13T08:40:28.509Z,4.43
2019-03-13T08:43:13.212Z,4.30
2019-03-13T08:46:11.162Z,4.53
2019-03-13T08:48:57.836Z,4.23
2019-03-13T08:51:44.428Z,4.97
2019-03-13T08:54:20.230Z,4.07
2019-03-13T08:57:17.655Z,4.33
2019-03-13T09:00:15.020Z,3.63
2019-03-13T09:03:02.760Z,4.53
2019-03-13T09:05:52.026Z,3.97
2019-03-13T09:08:58.799Z,4.10
2019-03-13T09:11:41.132Z,3.87
2019-03-13T09:14:17.685Z,3.83
2019-03-13T09:17:03.430Z,4.10
2019-03-13T09:19:44.038Z,4.97
2019-03-13T09:22:35.240Z,3.63
2019-03-13T09:25:27.191Z,3.63
2019-03-13T09:28:11.228Z,4.27
2019-03-13T09:30:55.958Z,4.10
2019-03-13T09:33:38.986Z,3.90
2019-03-13T09:36:30.071Z,3.60
2019-03-13T09:39:36.788Z,3.53
2019-03-13T09:42:15.595Z,4.50
2019-03-13T09:45:02.891Z,3.83
2019-03-13T09:47:53.604Z,3.47
2019-03-13T09:50:50.908Z,3.70
2019-03-13T09:53:45.521Z,3.77
2019-03-13T09:56:27.681Z,3.83
2019-03-13T09:59:25.087Z,4.23
2019-03-13T10:02:28.386Z,3.20
2019-03-13T10:05:10.553Z,3.70
2019-03-13T10:07:57.314Z,3.87
2019-03-13T10:10:41.753Z,3.40
2019-03-13T10:13:30.092Z,3.50
2019-03-13T10:16:20.359Z,3.20
2019-03-13T10:19:08.433Z,3.87
2019-03-13T10:21:53.657Z,3.77
2019-03-13T10:24:40.928Z,3.33
2019-03-13T10:27:34.805Z,3.50
2019-03-13T10:30:13.729Z,4.53
2019-03-13T10:33:00.900Z,4.17
2019-03-13T10:35:47.518Z,3.57
2019-03-13T10:38:24.546Z,4.23
2019-03-13T10:41:15.895Z,3.50
2019-03-13T10:44:07.119Z,3.00
2019-03-13T10:47:01.651Z,3.60
2019-03-13T10:49:44.699Z,3.40
2019-03-13T10:52:32.877Z,3.93
2019-03-13T10:55:24.347Z,3.60
2019-03-13T10:58:28.217Z,3.37
2019-03-13T11:01:20.716Z,3.60
2019-03-13T11:04:07.894Z,3.13
2019-03-13T11:06:55.584Z,4.37
2019-03-13T11:09:33.304Z,4.50
2019-03-13T11:12:19.166Z,3.73
2019-03-13T11:15:09.873Z,3.73
2019-03-13T11:17:53.218Z,3.90
2019-03-13T11:20:44.190Z,3.87
2019-03-13T11:24:02.433Z,3.40
2019-03-13T11:26:50.793Z,3.60
2019-03-13T11:29:37.656Z,4.43
2019-03-13T11:32:22.283Z,3.30
2019-03-13T11:35:19.667Z,3.50
2019-03-13T11:38:11.612Z,3.80
2019-03-13T11:40:52.472Z,3.40
2019-03-13T11:43:48.974Z,3.47
2019-03-13T11:46:31.473Z,3.87
2019-03-13T11:49:25.753Z,3.70
2019-03-13T11:52:32.420Z,3.70
2019-03-13T11:55:20.719Z,4.50
2019-03-13T11:58:13.478Z,3.50
2019-03-13T12:01:09.590Z,3.70
2019-03-13T12:04:00.653Z,4.17
2019-03-13T12:06:56.772Z,3.70
2019-03-13T12:09:53.953Z,3.97
2019-03-13T12:12:52.109Z,4.30
2019-03-13T12:16:02.816Z,4.83
2019-03-13T12:18:42.808Z,4.10
2019-03-13T12:21:32.003Z,4.53
2019-03-13T12:24:38.906Z,4.70
2019-03-13T12:27:45.529Z,3.83
2019-03-13T12:30:33.993Z,3.83
2019-03-13T12:33:12.949Z,4.30
2019-03-13T12:36:10.316Z,3.87
2019-03-13T12:39:11.442Z,3.60
2019-03-13T12:41:59.554Z,3.33
2019-03-13T12:44:48.225Z,3.80
2019-03-13T12:47:53.390Z,3.10
2019-03-13T12:50:47.857Z,4.07
2019-03-13T12:53:25.742Z,3.17
2019-03-13T12:56:10.856Z,3.27
2019-03-13T12:59:11.359Z,3.60
2019-03-13T13:01:50.004Z,3.50
2019-03-13T13:04:34.694Z,3.70
2019-03-13T13:07:34.511Z,3.07
2019-03-13T13:10:31.989Z,3.30
2019-03-13T13:13:17.213Z,3.07
2019-03-13T13:16:07.762Z,4.37
2019-03-13T13:18:43.798Z,3.20
2019-03-13T13:21:16.368Z,2.70
2019-03-13T13:23:47.757Z,2.80
2019-03-13T13:26:17.651Z,2.30
2019-03-13T13:28:51.755Z,2.40
2019-03-13T13:31:21.540Z,2.80
2019-03-13T13:33:51.064Z,3.20
2019-03-13T13:36:20.806Z,2.80
2019-03-13T13:38:50.563Z,2.80
2019-03-13T13:41:28.270Z,3.17
2019-03-13T13:43:58.403Z,3.27
2019-03-13T13:46:37.183Z,2.70
2019-03-13T13:49:06.515Z,3.07
2019-03-13T13:51:36.064Z,2.53
2019-03-13T13:54:07.999Z,3.00
2019-03-13T13:56:37.298Z,2.80
2019-03-13T13:59:07.273Z,2.87
2019-03-13T14:01:38.630Z,2.27
2019-03-13T14:04:08.019Z,2.53
2019-03-13T14:06:37.129Z,2.70
2019-03-13T14:09:07.768Z,2.60
2019-03-13T14:11:37.589Z,2.67
2019-03-13T14:14:07.901Z,2.80
2019-03-13T14:16:37.152Z,2.80
2019-03-13T14:19:06.912Z,2.97
2019-03-13T14:21:36.547Z,2.97
2019-03-13T14:24:17.217Z,3.20
2019-03-13T14:26:49.812Z,3.10
2019-03-13T14:29:25.317Z,2.77
2019-03-13T14:31:55.769Z,3.03
2019-03-13T14:34:26.156Z,2.83
2019-03-13T14:36:56.739Z,3.20
2019-03-13T14:39:28.240Z,3.17
2019-03-13T14:41:58.090Z,2.63
2019-03-13T14:44:27.650Z,2.40
2019-03-13T14:46:58.352Z,2.37
2019-03-13T14:49:30.069Z,3.07
2019-03-13T14:51:59.030Z,2.60
2019-03-13T14:54:32.622Z,2.70
2019-03-13T14:57:03.327Z,2.80
2019-03-13T14:59:34.023Z,3.37
2019-03-13T15:02:10.553Z,3.70
2019-03-13T15:04:39.720Z,2.40
2019-03-13T15:07:11.722Z,2.40
2019-03-13T15:09:40.800Z,2.00
2019-03-13T15:12:12.404Z,2.60
2019-03-13T15:14:43.327Z,2.40
2019-03-13T15:17:12.380Z,2.50
2019-03-13T15:19:47.314Z,2.50
2019-03-13T15:22:18.537Z,2.50
2019-03-13T15:24:48.858Z,3.00
2019-03-13T15:27:18.060Z,2.63
2019-03-13T15:29:47.500Z,2.80
2019-03-13T15:32:16.728Z,2.50
2019-03-13T15:34:47.206Z,2.20
2019-03-13T15:37:16.423Z,2.30
2019-03-13T15:39:45.640Z,2.47
2019-03-13T15:42:14.927Z,2.27
2019-03-13T15:44:43.829Z,1.90
2019-03-13T15:47:16.122Z,2.10
2019-03-13T15:49:45.461Z,1.80
2019-03-13T15:52:14.534Z,2.07
2019-03-13T15:54:43.657Z,2.70
2019-03-13T15:57:12.850Z,3.17
2019-03-13T15:59:42.101Z,2.90
2019-03-13T16:02:11.346Z,3.30
2019-03-13T16:04:40.278Z,4.20
2019-03-13T16:07:12.636Z,3.77
2019-03-13T16:09:42.589Z,3.57
2019-03-13T16:12:12.998Z,4.03
2019-03-13T16:14:48.995Z,4.10
2019-03-13T16:17:20.114Z,4.50
2019-03-13T16:19:52.406Z,4.70
2019-03-13T16:22:24.360Z,4.27
2019-03-13T16:24:56.142Z,3.90
2019-03-13T16:27:30.834Z,3.77
2019-03-13T16:30:01.866Z,4.03
2019-03-13T16:32:43.336Z,4.47
2019-03-13T16:35:02.059Z,4.17
2019-03-13T16:37:31.469Z,4.17
2019-03-13T16:40:00.945Z,3.63
2019-03-13T16:42:33.331Z,3.77
2019-03-13T16:45:11.441Z,4.00
2019-03-13T16:47:44.853Z,3.93
2019-03-13T16:50:19.104Z,3.53
2019-03-13T16:52:48.349Z,4.57
2019-03-13T16:55:23.058Z,3.57
2019-03-13T16:57:54.202Z,3.60
2019-03-13T17:00:27.181Z,3.80
2019-03-13T17:03:01.076Z,3.63
2019-03-13T17:05:32.888Z,3.40
2019-03-13T17:08:12.098Z,3.30
2019-03-13T17:10:42.221Z,3.20
2019-03-13T17:13:16.429Z,3.30
2019-03-13T17:15:48.965Z,2.80
2019-03-13T17:18:24.287Z,2.90
2019-03-13T17:20:57.433Z,3.37
2019-03-13T17:23:31.750Z,2.47
2019-03-13T17:26:01.441Z,2.47
2019-03-13T17:28:31.395Z,2.57
2019-03-13T17:31:00.838Z,2.80
2019-03-13T17:33:31.755Z,2.43
2019-03-13T17:36:04.661Z,2.80
2019-03-13T17:38:37.443Z,2.30
2019-03-13T17:41:08.842Z,2.43
2019-03-13T17:43:39.830Z,1.87
2019-03-13T17:46:13.629Z,2.00
2019-03-13T17:48:43.525Z,1.53
2019-03-13T17:51:13.389Z,1.80
2019-03-13T17:53:45.749Z,1.43
2019-03-13T17:56:18.402Z,1.60
2019-03-13T17:58:48.792Z,2.00
2019-03-13T18:01:21.563Z,1.50
2019-03-13T18:03:51.214Z,1.60
2019-03-13T18:06:22.325Z,1.83
2019-03-13T18:09:04.052Z,1.83
2019-03-13T18:11:35.420Z,1.67
2019-03-13T18:14:04.827Z,1.80
2019-03-13T18:16:34.299Z,1.70
2019-03-13T18:19:05.188Z,1.70
2019-03-13T18:21:35.261Z,2.20
2019-03-13T18:24:08.433Z,1.93
2019-03-13T18:26:40.366Z,3.70
2019-03-13T18:29:11.043Z,2.07
2019-03-13T18:31:42.607Z,1.73
2019-03-13T18:34:11.868Z,2.10
2019-03-13T18:36:53.004Z,1.70
2019-03-13T18:39:22.174Z,1.80
2019-03-13T18:41:51.128Z,1.67
2019-03-13T18:44:20.482Z,1.80
2019-03-13T18:46:49.687Z,2.00
2019-03-13T18:49:18.893Z,1.60
2019-03-13T18:51:48.143Z,1.90
2019-03-13T18:54:17.416Z,1.63
2019-03-13T18:56:46.914Z,1.87
2019-03-13T18:59:16.060Z,2.07
2019-03-13T19:01:45.141Z,1.90
2019-03-13T19:04:21.934Z,1.83
2019-03-13T19:06:51.167Z,2.30
2019-03-13T19:09:20.340Z,1.90
2019-03-13T19:11:50.956Z,2.03
2019-03-13T19:14:19.986Z,2.07
2019-03-13T19:16:49.115Z,2.40
2019-03-13T19:19:27.543Z,2.20
2019-03-13T19:21:56.987Z,2.83
2019-03-13T19:24:38.141Z,3.30
2019-03-13T19:27:10.754Z,3.83
2019-03-13T19:29:40.111Z,3.40
2019-03-13T19:32:12.624Z,3.50
2019-03-13T19:34:41.939Z,4.00
2019-03-13T19:37:16.336Z,4.13
2019-03-13T19:39:47.395Z,3.67
2019-03-13T19:42:17.488Z,3.27
2019-03-13T19:44:47.636Z,3.30
2019-03-13T19:47:18.237Z,3.63
2019-03-13T19:49:50.731Z,3.30
2019-03-13T19:52:22.836Z,3.17
2019-03-13T19:54:54.961Z,2.90
2019-03-13T19:57:29.218Z,3.50
2019-03-13T19:59:59.786Z,3.50
2019-03-13T20:02:31.102Z,4.50
2019-03-13T20:04:59.820Z,3.70
2019-03-13T20:07:32.487Z,3.90
2019-03-13T20:10:01.968Z,3.47
2019-03-13T20:12:31.356Z,3.43
2019-03-13T20:15:00.648Z,3.20
2019-03-13T20:17:30.048Z,3.83
2019-03-13T20:20:03.044Z,3.13
2019-03-13T20:22:34.777Z,3.23
2019-03-13T20:25:04.507Z,2.77
2019-03-13T20:27:36.248Z,2.93
2019-03-13T20:30:11.974Z,3.27
2019-03-13T20:32:41.234Z,3.07
2019-03-13T20:35:11.097Z,3.17
2019-03-13T20:37:44.598Z,2.57
2019-03-13T20:40:23.320Z,2.60
2019-03-13T20:42:55.555Z,3.00
2019-03-13T20:45:24.911Z,2.60
2019-03-13T20:47:54.233Z,2.70
2019-03-13T20:50:35.677Z,2.70
2019-03-13T20:52:56.381Z,3.20
2019-03-13T20:55:25.938Z,4.10
2019-03-13T20:57:57.660Z,3.80
2019-03-13T21:00:26.965Z,4.40
2019-03-13T21:02:56.433Z,4.67
2019-03-13T21:05:25.495Z,3.83
2019-03-13T21:07:54.454Z,3.27
2019-03-13T21:10:24.048Z,4.33
2019-03-13T21:12:53.316Z,3.37
2019-03-13T21:15:22.571Z,4.00
2019-03-13T21:17:51.852Z,3.77
2019-03-13T21:20:21.521Z,3.67
2019-03-13T21:22:50.966Z,3.60
2019-03-13T21:25:20.505Z,3.57
2019-03-13T21:27:49.787Z,3.27
2019-03-13T21:30:21.311Z,2.93
2019-03-13T21:32:50.369Z,3.23
2019-03-13T21:35:19.933Z,2.87
2019-03-13T21:37:49.559Z,2.17
2019-03-13T21:40:19.030Z,2.60
2019-03-13T21:42:47.919Z,3.20
2019-03-13T21:45:22.894Z,2.23
2019-03-13T21:47:48.582Z,2.07
2019-03-13T21:50:18.046Z,2.80
2019-03-13T21:52:47.534Z,2.93
2019-03-13T21:55:17.117Z,2.53
2019-03-13T21:57:47.228Z,2.50
2019-03-13T22:00:19.436Z,2.20
2019-03-13T22:02:49.034Z,2.00
2019-03-13T22:05:25.647Z,2.10
2019-03-13T22:07:49.008Z,1.50
2019-03-13T22:10:18.783Z,1.30
2019-03-13T22:12:47.893Z,1.40
2019-03-13T22:15:17.345Z,0.87
2019-03-13T22:17:46.577Z,1.20
2019-03-13T22:20:24.924Z,1.50
2019-03-13T22:22:54.086Z,1.70
2019-03-13T22:25:23.100Z,2.10
2019-03-13T22:27:53.622Z,2.23
2019-03-13T22:30:23.218Z,2.93
2019-03-13T22:32:52.715Z,2.50
2019-03-13T22:35:24.286Z,2.27
2019-03-13T22:37:54.830Z,2.20
2019-03-13T22:40:23.916Z,2.20
2019-03-13T22:42:53.079Z,3.17
2019-03-13T22:45:22.525Z,2.03
2019-03-13T22:47:51.833Z,2.30
2019-03-13T22:50:20.913Z,2.27
2019-03-13T22:52:50.147Z,3.20
2019-03-13T22:55:20.421Z,2.73
2019-03-13T22:57:49.641Z,3.37
2019-03-13T23:00:54.880Z,2.67
2019-03-13T23:03:25.179Z,3.20
2019-03-13T23:05:54.973Z,3.70
2019-03-13T23:08:24.190Z,2.60
2019-03-13T23:10:53.277Z,3.47
2019-03-13T23:13:25.350Z,3.30
2019-03-13T23:15:54.356Z,3.87
2019-03-13T23:18:25.026Z,3.17
2019-03-13T23:20:54.551Z,3.77
2019-03-13T23:23:26.653Z,4.13
2019-03-13T23:25:55.649Z,3.57
2019-03-13T23:28:24.532Z,3.60
2019-03-13T23:30:53.513Z,3.67
2019-03-13T23:33:22.727Z,3.70
2019-03-13T23:35:53.857Z,3.60
2019-03-13T23:38:24.565Z,4.10
2019-03-13T23:40:56.974Z,3.10
2019-03-13T23:43:25.970Z,4.27
2019-03-13T23:45:55.154Z,3.40
2019-03-13T23:48:24.266Z,3.50
2019-03-13T23:50:53.205Z,3.53
2019-03-13T23:53:22.757Z,3.40
2019-03-13T23:55:51.973Z,4.30
2019-03-13T23:58:20.932Z,4.50
